^^
TXWeather Station Historical Data
Daily Summary for May 19, 2022 Units:  English    Metric   Both
Daily Weekly Monthly Yearly Custom
  High: Low: Average:
Temperature: 95.0 °F 75.0 °F 83.7 °F
Dew Point: 74.0 °F 70.0 °F 71.6 °F
Humidity: 85% 47% 69%
Wind Speed: 18mph 2mph 10.2mph
Wind Gust: 20mph - -
Wind- - SSE
Pressure: 29.9 in 29.7 in -
Precipitation: 0.000 in    
Historical Graphs
 
 
Tabular Data for May 19, 2022
Time Temperature Dew Point Pressure Wind Wind Speed Wind Gust Humidity Rainfall Rate (Hourly) solar
00:04 78.0 °F 71.0 °F 29.9 in SSE 8 mph 10 mph 77% 0.000 in 0.00 W/m2
00:09 78.0 °F 71.0 °F 29.9 in SSE 7 mph 9 mph 77% 0.000 in 0.00 W/m2
00:14 78.0 °F 71.0 °F 29.9 in South 7 mph 9 mph 78% 0.000 in 0.00 W/m2
00:19 78.0 °F 71.0 °F 29.9 in SSE 7 mph 8 mph 78% 0.000 in 0.00 W/m2
00:24 78.0 °F 71.0 °F 29.9 in SSE 6 mph 7 mph 78% 0.000 in 0.00 W/m2
00:29 78.0 °F 71.0 °F 29.9 in SSE 5 mph 7 mph 78% 0.000 in 0.00 W/m2
00:34 78.0 °F 71.0 °F 29.9 in SSE 5 mph 10 mph 78% 0.000 in 0.00 W/m2
00:39 78.0 °F 71.0 °F 29.9 in SSE 6 mph 10 mph 78% 0.000 in 0.00 W/m2
00:44 78.0 °F 71.0 °F 29.9 in SSE 4 mph 5 mph 79% 0.000 in 0.00 W/m2
00:49 78.0 °F 71.0 °F 29.9 in SSE 5 mph 7 mph 79% 0.000 in 0.00 W/m2
00:54 78.0 °F 71.0 °F 29.9 in South 7 mph 7 mph 79% 0.000 in 0.00 W/m2
00:59 78.0 °F 71.0 °F 29.9 in SSE 7 mph 7 mph 79% 0.000 in 0.00 W/m2
01:04 78.0 °F 71.0 °F 29.9 in SSE 8 mph 9 mph 80% 0.000 in 0.00 W/m2
01:09 78.0 °F 71.0 °F 29.9 in South 7 mph 9 mph 80% 0.000 in 0.00 W/m2
01:14 78.0 °F 71.0 °F 29.9 in SSE 7 mph 9 mph 80% 0.000 in 0.00 W/m2
01:19 78.0 °F 71.0 °F 29.9 in SSE 5 mph 8 mph 80% 0.000 in 0.00 W/m2
01:24 78.0 °F 71.0 °F 29.9 in SSE 9 mph 9 mph 80% 0.000 in 0.00 W/m2
01:29 78.0 °F 71.0 °F 29.9 in SSE 11 mph 11 mph 80% 0.000 in 0.00 W/m2
01:34 78.0 °F 71.0 °F 29.9 in SSE 8 mph 11 mph 81% 0.000 in 0.00 W/m2
01:39 77.0 °F 71.0 °F 29.9 in SSE 9 mph 10 mph 81% 0.000 in 0.00 W/m2
01:44 77.0 °F 71.0 °F 29.9 in SSE 14 mph 14 mph 81% 0.000 in 0.00 W/m2
01:49 77.0 °F 71.0 °F 29.9 in SSE 10 mph 10 mph 81% 0.000 in 0.00 W/m2
01:54 77.0 °F 71.0 °F 29.9 in SSE 11 mph 11 mph 81% 0.000 in 0.00 W/m2
01:59 77.0 °F 71.0 °F 29.9 in SSE 7 mph 7 mph 81% 0.000 in 0.00 W/m2
02:04 77.0 °F 71.0 °F 29.9 in SSE 7 mph 10 mph 81% 0.000 in 0.00 W/m2
02:09 77.0 °F 71.0 °F 29.9 in SSE 8 mph 10 mph 81% 0.000 in 0.00 W/m2
02:14 77.0 °F 71.0 °F 29.9 in SSE 10 mph 10 mph 82% 0.000 in 0.00 W/m2
02:19 77.0 °F 71.0 °F 29.9 in SSE 6 mph 7 mph 82% 0.000 in 0.00 W/m2
02:24 77.0 °F 71.0 °F 29.9 in SSE 12 mph 12 mph 82% 0.000 in 0.00 W/m2
02:29 77.0 °F 71.0 °F 29.9 in SSE 7 mph 12 mph 82% 0.000 in 0.00 W/m2
02:34 77.0 °F 71.0 °F 29.9 in SSE 9 mph 10 mph 82% 0.000 in 0.00 W/m2
02:39 77.0 °F 71.0 °F 29.9 in SSE 9 mph 10 mph 82% 0.000 in 0.00 W/m2
02:44 77.0 °F 71.0 °F 29.9 in SSE 10 mph 11 mph 82% 0.000 in 0.00 W/m2
02:49 77.0 °F 71.0 °F 29.9 in SSE 8 mph 8 mph 82% 0.000 in 0.00 W/m2
02:54 77.0 °F 71.0 °F 29.9 in SSE 6 mph 8 mph 82% 0.000 in 0.00 W/m2
02:59 77.0 °F 71.0 °F 29.9 in SSE 8 mph 8 mph 82% 0.000 in 0.00 W/m2
03:04 77.0 °F 71.0 °F 29.9 in SSE 7 mph 10 mph 82% 0.000 in 0.00 W/m2
03:09 77.0 °F 71.0 °F 29.9 in SSE 9 mph 10 mph 83% 0.000 in 0.00 W/m2
03:14 77.0 °F 71.0 °F 29.9 in SSE 6 mph 8 mph 83% 0.000 in 0.00 W/m2
03:19 77.0 °F 71.0 °F 29.9 in South 8 mph 8 mph 83% 0.000 in 0.00 W/m2
03:24 77.0 °F 71.0 °F 29.9 in SSE 8 mph 8 mph 83% 0.000 in 0.00 W/m2
03:29 76.0 °F 71.0 °F 29.9 in SSE 7 mph 8 mph 83% 0.000 in 0.00 W/m2
03:34 76.0 °F 71.0 °F 29.9 in SSE 8 mph 8 mph 83% 0.000 in 0.00 W/m2
03:39 76.0 °F 71.0 °F 29.9 in SSE 5 mph 8 mph 83% 0.000 in 0.00 W/m2
03:44 76.0 °F 71.0 °F 29.9 in South 8 mph 11 mph 83% 0.000 in 0.00 W/m2
03:49 76.0 °F 71.0 °F 29.9 in SSE 9 mph 9 mph 83% 0.000 in 0.00 W/m2
03:54 76.0 °F 71.0 °F 29.9 in SSE 10 mph 10 mph 83% 0.000 in 0.00 W/m2
03:59 76.0 °F 70.0 °F 29.9 in SSE 8 mph 12 mph 83% 0.000 in 0.00 W/m2
04:04 76.0 °F 70.0 °F 29.9 in SSE 9 mph 11 mph 83% 0.000 in 0.00 W/m2
04:09 76.0 °F 70.0 °F 29.9 in South 10 mph 11 mph 83% 0.000 in 0.00 W/m2
04:14 76.0 °F 70.0 °F 29.9 in SSE 8 mph 11 mph 83% 0.000 in 0.00 W/m2
04:19 76.0 °F 70.0 °F 29.9 in SSE 11 mph 11 mph 83% 0.000 in 0.00 W/m2
04:24 76.0 °F 70.0 °F 29.9 in SSE 7 mph 7 mph 83% 0.000 in 0.00 W/m2
04:29 76.0 °F 70.0 °F 29.9 in SSE 10 mph 10 mph 83% 0.000 in 0.00 W/m2
04:34 76.0 °F 71.0 °F 29.9 in SSE 8 mph 9 mph 84% 0.000 in 0.00 W/m2
04:39 76.0 °F 71.0 °F 29.9 in SSE 7 mph 9 mph 84% 0.000 in 0.00 W/m2
04:44 76.0 °F 71.0 °F 29.9 in SSE 7 mph 8 mph 84% 0.000 in 0.00 W/m2
04:49 76.0 °F 71.0 °F 29.9 in SSE 9 mph 9 mph 84% 0.000 in 0.00 W/m2
04:54 76.0 °F 71.0 °F 29.9 in SSE 7 mph 10 mph 84% 0.000 in 0.00 W/m2
04:59 76.0 °F 71.0 °F 29.9 in SSE 4 mph 8 mph 84% 0.000 in 0.00 W/m2
05:04 76.0 °F 71.0 °F 29.9 in SSE 8 mph 8 mph 84% 0.000 in 0.00 W/m2
05:09 76.0 °F 71.0 °F 29.9 in SSE 7 mph 8 mph 84% 0.000 in 0.00 W/m2
05:14 76.0 °F 71.0 °F 29.9 in SSE 8 mph 8 mph 84% 0.000 in 0.00 W/m2
05:19 76.0 °F 71.0 °F 29.9 in SSE 4 mph 8 mph 84% 0.000 in 0.00 W/m2
05:24 76.0 °F 71.0 °F 29.9 in SSE 6 mph 6 mph 84% 0.000 in 0.00 W/m2
05:29 76.0 °F 71.0 °F 29.9 in SSE 6 mph 8 mph 84% 0.000 in 0.00 W/m2
05:34 76.0 °F 71.0 °F 29.9 in SSE 8 mph 8 mph 84% 0.000 in 0.00 W/m2
05:39 76.0 °F 71.0 °F 29.9 in SSE 8 mph 8 mph 85% 0.000 in 0.00 W/m2
05:44 76.0 °F 71.0 °F 29.9 in SSE 9 mph 9 mph 85% 0.000 in 0.00 W/m2
05:49 76.0 °F 71.0 °F 29.9 in SSE 4 mph 9 mph 85% 0.000 in 0.00 W/m2
05:54 76.0 °F 71.0 °F 29.9 in SSE 9 mph 9 mph 85% 0.000 in 0.00 W/m2
05:59 76.0 °F 71.0 °F 29.9 in SSE 5 mph 7 mph 85% 0.000 in 0.00 W/m2
06:04 76.0 °F 71.0 °F 29.9 in SSE 4 mph 6 mph 85% 0.000 in 0.00 W/m2
06:09 76.0 °F 71.0 °F 29.9 in SSE 6 mph 6 mph 85% 0.000 in 0.00 W/m2
06:14 76.0 °F 71.0 °F 29.9 in SSE 5 mph 6 mph 85% 0.000 in 0.00 W/m2
06:19 75.0 °F 71.0 °F 29.9 in SSE 4 mph 5 mph 85% 0.000 in 0.00 W/m2
06:24 75.0 °F 71.0 °F 29.9 in SSE 4 mph 6 mph 85% 0.000 in 0.00 W/m2
06:29 75.0 °F 71.0 °F 29.9 in SSE 5 mph 5 mph 85% 0.000 in 0.00 W/m2
06:34 75.0 °F 71.0 °F 29.9 in SSE 6 mph 7 mph 85% 0.000 in 7.00 W/m2
06:39 75.0 °F 71.0 °F 29.9 in SE 8 mph 8 mph 85% 0.000 in 11.00 W/m2
06:44 75.0 °F 71.0 °F 29.9 in SSE 5 mph 6 mph 85% 0.000 in 16.00 W/m2
06:49 75.0 °F 71.0 °F 29.9 in SSE 5 mph 6 mph 85% 0.000 in 16.00 W/m2
06:54 75.0 °F 71.0 °F 29.9 in SSE 7 mph 7 mph 85% 0.000 in 16.00 W/m2
06:59 75.0 °F 71.0 °F 29.9 in SSE 6 mph 6 mph 85% 0.000 in 16.00 W/m2
07:04 75.0 °F 71.0 °F 29.9 in SSE 6 mph 6 mph 85% 0.000 in 18.00 W/m2
07:09 75.0 °F 71.0 °F 29.9 in SSE 5 mph 6 mph 85% 0.000 in 21.00 W/m2
07:14 76.0 °F 71.0 °F 29.9 in SSE 8 mph 8 mph 85% 0.000 in 26.00 W/m2
07:19 76.0 °F 71.0 °F 29.9 in SSE 5 mph 6 mph 85% 0.000 in 33.00 W/m2
07:24 76.0 °F 71.0 °F 29.9 in SSE 7 mph 7 mph 85% 0.000 in 37.00 W/m2
07:29 76.0 °F 71.0 °F 29.9 in South 2 mph 6 mph 85% 0.000 in 42.00 W/m2
07:34 76.0 °F 71.0 °F 29.9 in SSE 4 mph 4 mph 85% 0.000 in 62.00 W/m2
07:39 76.0 °F 71.0 °F 29.9 in SSE 5 mph 5 mph 85% 0.000 in 63.00 W/m2
07:44 76.0 °F 71.0 °F 29.9 in SSE 5 mph 7 mph 85% 0.000 in 65.00 W/m2
07:49 76.0 °F 71.0 °F 29.9 in SE 4 mph 4 mph 85% 0.000 in 74.00 W/m2
07:54 77.0 °F 72.0 °F 29.9 in SSE 8 mph 9 mph 85% 0.000 in 70.00 W/m2
07:59 77.0 °F 72.0 °F 29.9 in SSE 5 mph 9 mph 85% 0.000 in 83.00 W/m2
08:04 77.0 °F 72.0 °F 29.9 in SSE 6 mph 11 mph 85% 0.000 in 105.00 W/m2
08:09 77.0 °F 72.0 °F 29.9 in SE 12 mph 12 mph 84% 0.000 in 139.00 W/m2
08:14 78.0 °F 72.0 °F 29.9 in SSE 7 mph 12 mph 84% 0.000 in 156.00 W/m2
08:19 78.0 °F 73.0 °F 29.9 in SSE 5 mph 5 mph 84% 0.000 in 167.00 W/m2
08:24 78.0 °F 73.0 °F 29.9 in South 6 mph 7 mph 83% 0.000 in 162.00 W/m2
08:29 79.0 °F 73.0 °F 29.9 in South 7 mph 9 mph 83% 0.000 in 151.00 W/m2
08:34 79.0 °F 73.0 °F 29.9 in SSE 8 mph 11 mph 82% 0.000 in 125.00 W/m2
08:39 79.0 °F 73.0 °F 29.9 in SSE 8 mph 11 mph 81% 0.000 in 169.00 W/m2
08:44 79.0 °F 73.0 °F 29.9 in SSE 8 mph 10 mph 80% 0.000 in 148.00 W/m2
08:49 80.0 °F 73.0 °F 29.9 in SSE 8 mph 11 mph 79% 0.000 in 207.00 W/m2
08:54 80.0 °F 73.0 °F 29.9 in SSE 12 mph 12 mph 79% 0.000 in 216.00 W/m2
08:59 80.0 °F 73.0 °F 29.9 in SSE 14 mph 14 mph 78% 0.000 in 439.00 W/m2
09:04 80.0 °F 73.0 °F 29.9 in SSE 13 mph 13 mph 78% 0.000 in 209.00 W/m2
09:09 81.0 °F 73.0 °F 29.9 in SSE 14 mph 14 mph 78% 0.000 in 475.00 W/m2
09:14 81.0 °F 73.0 °F 29.9 in SE 13 mph 14 mph 76% 0.000 in 515.00 W/m2
09:19 82.0 °F 73.0 °F 29.9 in SSE 9 mph 13 mph 75% 0.000 in 538.00 W/m2
09:24 82.0 °F 73.0 °F 29.9 in SSE 12 mph 19 mph 74% 0.000 in 489.00 W/m2
09:29 82.0 °F 73.0 °F 29.9 in South 9 mph 19 mph 73% 0.000 in 489.00 W/m2
09:34 83.0 °F 73.0 °F 29.9 in South 14 mph 18 mph 72% 0.000 in 466.00 W/m2
09:39 83.0 °F 72.0 °F 29.9 in South 10 mph 18 mph 70% 0.000 in 478.00 W/m2
09:44 83.0 °F 72.0 °F 29.9 in South 11 mph 14 mph 69% 0.000 in 494.00 W/m2
09:49 84.0 °F 72.0 °F 29.9 in SSE 17 mph 18 mph 69% 0.000 in 526.00 W/m2
09:54 84.0 °F 72.0 °F 29.9 in SSE 17 mph 17 mph 68% 0.000 in 538.00 W/m2
09:59 84.0 °F 72.0 °F 29.9 in SSE 14 mph 14 mph 68% 0.000 in 543.00 W/m2
10:04 85.0 °F 73.0 °F 29.9 in SSE 11 mph 11 mph 67% 0.000 in 582.00 W/m2
10:09 85.0 °F 73.0 °F 29.9 in SSE 16 mph 16 mph 67% 0.000 in 621.00 W/m2
10:14 86.0 °F 72.0 °F 29.9 in SSE 14 mph 14 mph 65% 0.000 in 643.00 W/m2
10:19 86.0 °F 72.0 °F 29.9 in SSE 11 mph 15 mph 64% 0.000 in 701.00 W/m2
10:24 86.0 °F 72.0 °F 29.9 in SSE 12 mph 12 mph 63% 0.000 in 714.00 W/m2
10:29 87.0 °F 72.0 °F 29.9 in SSE 10 mph 12 mph 63% 0.000 in 693.00 W/m2
10:34 87.0 °F 71.0 °F 29.9 in South 9 mph 13 mph 61% 0.000 in 735.00 W/m2
10:39 87.0 °F 71.0 °F 29.9 in SSE 14 mph 14 mph 60% 0.000 in 758.00 W/m2
10:44 87.0 °F 71.0 °F 29.9 in SSE 8 mph 12 mph 60% 0.000 in 744.00 W/m2
10:49 87.0 °F 71.0 °F 29.9 in SSE 12 mph 12 mph 59% 0.000 in 766.00 W/m2
10:54 88.0 °F 71.0 °F 29.9 in South 12 mph 16 mph 58% 0.000 in 784.00 W/m2
10:59 88.0 °F 72.0 °F 29.9 in South 10 mph 12 mph 59% 0.000 in 789.00 W/m2
11:04 88.0 °F 72.0 °F 29.9 in South 11 mph 12 mph 58% 0.000 in 802.00 W/m2
11:09 89.0 °F 72.0 °F 29.9 in SSE 13 mph 13 mph 58% 0.000 in 814.00 W/m2
11:14 89.0 °F 71.0 °F 29.9 in SE 12 mph 13 mph 57% 0.000 in 812.00 W/m2
11:19 89.0 °F 71.0 °F 29.9 in SSE 11 mph 12 mph 56% 0.000 in 833.00 W/m2
11:24 90.0 °F 71.0 °F 29.9 in SSE 11 mph 13 mph 55% 0.000 in 853.00 W/m2
11:29 90.0 °F 71.0 °F 29.9 in South 9 mph 14 mph 54% 0.000 in 860.00 W/m2
11:34 90.0 °F 71.0 °F 29.9 in SSE 14 mph 18 mph 54% 0.000 in 860.00 W/m2
11:39 90.0 °F 71.0 °F 29.9 in SSE 12 mph 18 mph 54% 0.000 in 870.00 W/m2
11:44 91.0 °F 72.0 °F 29.9 in SSE 10 mph 11 mph 55% 0.000 in 872.00 W/m2
11:49 91.0 °F 73.0 °F 29.9 in SSE 12 mph 14 mph 55% 0.000 in 881.00 W/m2
11:54 91.0 °F 73.0 °F 29.9 in SSE 12 mph 12 mph 56% 0.000 in 896.00 W/m2
11:59 91.0 °F 73.0 °F 29.9 in SSE 14 mph 14 mph 56% 0.000 in 904.00 W/m2
12:04 92.0 °F 74.0 °F 29.9 in SE 10 mph 10 mph 57% 0.000 in 905.00 W/m2
12:09 92.0 °F 74.0 °F 29.9 in SSE 12 mph 12 mph 56% 0.000 in 914.00 W/m2
12:14 92.0 °F 74.0 °F 29.9 in SSE 10 mph 11 mph 55% 0.000 in 946.00 W/m2
12:19 92.0 °F 74.0 °F 29.9 in SSE 12 mph 15 mph 55% 0.000 in 949.00 W/m2
12:24 93.0 °F 74.0 °F 29.9 in South 11 mph 15 mph 55% 0.000 in 935.00 W/m2
12:29 93.0 °F 74.0 °F 29.9 in SSE 10 mph 12 mph 54% 0.000 in 969.00 W/m2
12:34 93.0 °F 73.0 °F 29.9 in South 9 mph 13 mph 53% 0.000 in 963.00 W/m2
12:39 93.0 °F 73.0 °F 29.9 in South 13 mph 16 mph 52% 0.000 in 953.00 W/m2
12:44 93.0 °F 73.0 °F 29.9 in SSE 11 mph 11 mph 52% 0.000 in 956.00 W/m2
12:49 93.0 °F 73.0 °F 29.9 in SSE 10 mph 12 mph 52% 0.000 in 974.00 W/m2
12:54 93.0 °F 72.0 °F 29.9 in SSE 12 mph 13 mph 51% 0.000 in 1004.00 W/m2
12:59 93.0 °F 73.0 °F 29.9 in South 11 mph 13 mph 52% 0.000 in 1004.00 W/m2
13:04 93.0 °F 73.0 °F 29.8 in South 14 mph 15 mph 51% 0.000 in 965.00 W/m2
13:09 94.0 °F 72.0 °F 29.8 in SSE 16 mph 16 mph 50% 0.000 in 963.00 W/m2
13:14 94.0 °F 72.0 °F 29.8 in SSE 10 mph 16 mph 50% 0.000 in 960.00 W/m2
13:19 94.0 °F 73.0 °F 29.8 in SSE 11 mph 15 mph 51% 0.000 in 962.00 W/m2
13:24 94.0 °F 73.0 °F 29.8 in SSE 11 mph 15 mph 51% 0.000 in 962.00 W/m2
13:29 94.0 °F 73.0 °F 29.8 in SSE 17 mph 17 mph 51% 0.000 in 946.00 W/m2
13:34 94.0 °F 72.0 °F 29.8 in SSE 15 mph 15 mph 50% 0.000 in 909.00 W/m2
13:39 94.0 °F 72.0 °F 29.8 in South 11 mph 13 mph 50% 0.000 in 912.00 W/m2
13:44 94.0 °F 73.0 °F 29.8 in SSE 10 mph 14 mph 51% 0.000 in 907.00 W/m2
13:49 94.0 °F 73.0 °F 29.8 in South 9 mph 16 mph 51% 0.000 in 900.00 W/m2
13:54 94.0 °F 72.0 °F 29.8 in South 13 mph 13 mph 50% 0.000 in 912.00 W/m2
13:59 94.0 °F 73.0 °F 29.8 in South 9 mph 13 mph 50% 0.000 in 907.00 W/m2
14:09 94.0 °F 72.0 °F 29.8 in SSE 11 mph 11 mph 49% 0.000 in 909.00 W/m2
14:14 94.0 °F 72.0 °F 29.8 in SSE 11 mph 13 mph 49% 0.000 in 895.00 W/m2
14:19 95.0 °F 73.0 °F 29.8 in SSE 8 mph 13 mph 50% 0.000 in 902.00 W/m2
14:24 95.0 °F 73.0 °F 29.8 in South 10 mph 13 mph 50% 0.000 in 896.00 W/m2
14:29 95.0 °F 73.0 °F 29.8 in SSE 11 mph 11 mph 49% 0.000 in 893.00 W/m2
14:34 95.0 °F 73.0 °F 29.8 in SSE 13 mph 17 mph 49% 0.000 in 889.00 W/m2
14:39 95.0 °F 72.0 °F 29.8 in SSE 13 mph 17 mph 48% 0.000 in 889.00 W/m2
14:44 95.0 °F 72.0 °F 29.8 in SSE 15 mph 15 mph 48% 0.000 in 875.00 W/m2
14:49 95.0 °F 72.0 °F 29.8 in SSE 11 mph 15 mph 48% 0.000 in 879.00 W/m2
14:54 95.0 °F 73.0 °F 29.8 in South 15 mph 15 mph 49% 0.000 in 863.00 W/m2
14:59 95.0 °F 73.0 °F 29.8 in South 10 mph 15 mph 49% 0.000 in 831.00 W/m2
15:04 95.0 °F 72.0 °F 29.8 in SSE 11 mph 14 mph 48% 0.000 in 817.00 W/m2
15:09 95.0 °F 72.0 °F 29.8 in SSE 14 mph 14 mph 48% 0.000 in 817.00 W/m2
15:14 95.0 °F 72.0 °F 29.8 in SSE 15 mph 15 mph 48% 0.000 in 793.00 W/m2
15:19 95.0 °F 72.0 °F 29.8 in SSE 15 mph 15 mph 49% 0.000 in 782.00 W/m2
15:24 95.0 °F 72.0 °F 29.8 in SSE 15 mph 17 mph 49% 0.000 in 773.00 W/m2
15:29 95.0 °F 72.0 °F 29.8 in SSE 12 mph 18 mph 49% 0.000 in 742.00 W/m2
15:34 95.0 °F 73.0 °F 29.8 in SSE 12 mph 12 mph 49% 0.000 in 733.00 W/m2
15:39 95.0 °F 73.0 °F 29.8 in SSE 10 mph 15 mph 49% 0.000 in 721.00 W/m2
15:44 95.0 °F 73.0 °F 29.8 in South 9 mph 9 mph 49% 0.000 in 710.00 W/m2
15:49 95.0 °F 73.0 °F 29.8 in SSE 11 mph 12 mph 49% 0.000 in 668.00 W/m2
15:54 95.0 °F 72.0 °F 29.8 in SSE 10 mph 15 mph 48% 0.000 in 671.00 W/m2
15:59 95.0 °F 71.0 °F 29.8 in SE 12 mph 13 mph 47% 0.000 in 657.00 W/m2
16:04 95.0 °F 72.0 °F 29.8 in SSE 11 mph 16 mph 48% 0.000 in 629.00 W/m2
16:09 95.0 °F 72.0 °F 29.8 in SSE 13 mph 13 mph 48% 0.000 in 610.00 W/m2
16:14 95.0 °F 72.0 °F 29.8 in SE 15 mph 15 mph 48% 0.000 in 610.00 W/m2
16:19 94.0 °F 72.0 °F 29.8 in SE 13 mph 14 mph 49% 0.000 in 605.00 W/m2
16:24 94.0 °F 72.0 °F 29.8 in SE 18 mph 18 mph 49% 0.000 in 584.00 W/m2
16:29 94.0 °F 73.0 °F 29.8 in SE 13 mph 13 mph 50% 0.000 in 564.00 W/m2
16:34 94.0 °F 72.0 °F 29.8 in SE 17 mph 19 mph 49% 0.000 in 552.00 W/m2
16:39 94.0 °F 72.0 °F 29.8 in SSE 12 mph 19 mph 49% 0.000 in 550.00 W/m2
16:44 94.0 °F 72.0 °F 29.8 in SSE 12 mph 16 mph 49% 0.000 in 545.00 W/m2
16:49 94.0 °F 72.0 °F 29.8 in SSE 12 mph 20 mph 49% 0.000 in 520.00 W/m2
16:54 93.0 °F 71.0 °F 29.8 in SSE 14 mph 14 mph 49% 0.000 in 503.00 W/m2
16:59 93.0 °F 71.0 °F 29.7 in SE 15 mph 15 mph 49% 0.000 in 485.00 W/m2
17:04 93.0 °F 71.0 °F 29.7 in SE 14 mph 14 mph 49% 0.000 in 475.00 W/m2
17:09 93.0 °F 71.0 °F 29.7 in SSE 12 mph 14 mph 50% 0.000 in 482.00 W/m2
17:14 93.0 °F 73.0 °F 29.7 in South 13 mph 13 mph 52% 0.000 in 473.00 W/m2
17:19 93.0 °F 73.0 °F 29.7 in SE 15 mph 16 mph 53% 0.000 in 468.00 W/m2
17:24 92.0 °F 73.0 °F 29.7 in SSE 13 mph 15 mph 53% 0.000 in 455.00 W/m2
17:29 92.0 °F 73.0 °F 29.7 in SSE 14 mph 14 mph 54% 0.000 in 438.00 W/m2
17:34 92.0 °F 73.0 °F 29.7 in SSE 14 mph 14 mph 55% 0.000 in 431.00 W/m2
17:39 92.0 °F 72.0 °F 29.7 in SSE 11 mph 14 mph 53% 0.000 in 417.00 W/m2
17:44 92.0 °F 73.0 °F 29.8 in SSE 12 mph 14 mph 54% 0.000 in 390.00 W/m2
17:49 92.0 °F 73.0 °F 29.7 in SSE 14 mph 19 mph 55% 0.000 in 378.00 W/m2
17:54 91.0 °F 73.0 °F 29.7 in SSE 17 mph 19 mph 55% 0.000 in 341.00 W/m2
17:59 91.0 °F 73.0 °F 29.7 in SSE 17 mph 17 mph 56% 0.000 in 329.00 W/m2
18:04 90.0 °F 73.0 °F 29.7 in SE 14 mph 17 mph 56% 0.000 in 315.00 W/m2
18:09 90.0 °F 72.0 °F 29.7 in SE 17 mph 17 mph 56% 0.000 in 315.00 W/m2
18:14 90.0 °F 72.0 °F 29.7 in SSE 14 mph 17 mph 56% 0.000 in 313.00 W/m2
18:19 90.0 °F 73.0 °F 29.7 in SSE 13 mph 13 mph 57% 0.000 in 297.00 W/m2
18:24 90.0 °F 72.0 °F 29.7 in SSE 15 mph 15 mph 56% 0.000 in 279.00 W/m2
18:29 89.0 °F 72.0 °F 29.7 in SSE 11 mph 15 mph 56% 0.000 in 262.00 W/m2
18:34 89.0 °F 71.0 °F 29.7 in SSE 11 mph 11 mph 56% 0.000 in 255.00 W/m2
18:39 89.0 °F 72.0 °F 29.7 in South 13 mph 20 mph 58% 0.000 in 250.00 W/m2
18:44 89.0 °F 72.0 °F 29.7 in SSE 13 mph 14 mph 59% 0.000 in 232.00 W/m2
18:49 88.0 °F 73.0 °F 29.7 in SSE 13 mph 13 mph 60% 0.000 in 220.00 W/m2
18:59 88.0 °F 72.0 °F 29.7 in SSE 11 mph 16 mph 61% 0.000 in 188.00 W/m2
19:04 87.0 °F 72.0 °F 29.7 in SE 13 mph 16 mph 61% 0.000 in 167.00 W/m2
19:09 87.0 °F 72.0 °F 29.7 in SE 14 mph 16 mph 62% 0.000 in 149.00 W/m2
19:14 87.0 °F 72.0 °F 29.7 in SSE 11 mph 12 mph 62% 0.000 in 77.00 W/m2
19:19 86.0 °F 72.0 °F 29.7 in SE 15 mph 17 mph 63% 0.000 in 67.00 W/m2
19:24 86.0 °F 72.0 °F 29.7 in SSE 17 mph 17 mph 63% 0.000 in 63.00 W/m2
19:29 86.0 °F 72.0 °F 29.7 in SE 15 mph 17 mph 64% 0.000 in 54.00 W/m2
19:34 85.0 °F 72.0 °F 29.7 in SE 11 mph 16 mph 64% 0.000 in 49.00 W/m2
19:39 85.0 °F 71.0 °F 29.7 in SE 14 mph 14 mph 64% 0.000 in 44.00 W/m2
19:44 85.0 °F 71.0 °F 29.7 in SSE 14 mph 14 mph 65% 0.000 in 37.00 W/m2
19:49 84.0 °F 72.0 °F 29.7 in SE 13 mph 14 mph 66% 0.000 in 32.00 W/m2
19:54 84.0 °F 71.0 °F 29.7 in SSE 13 mph 14 mph 66% 0.000 in 26.00 W/m2
19:59 84.0 °F 71.0 °F 29.7 in SSE 13 mph 17 mph 66% 0.000 in 19.00 W/m2
20:04 84.0 °F 71.0 °F 29.7 in SSE 15 mph 18 mph 67% 0.000 in 12.00 W/m2
20:09 83.0 °F 71.0 °F 29.7 in SSE 12 mph 18 mph 67% 0.000 in 7.00 W/m2
20:14 83.0 °F 71.0 °F 29.7 in SE 10 mph 13 mph 67% 0.000 in 0.00 W/m2
20:19 83.0 °F 71.0 °F 29.7 in SSE 9 mph 13 mph 67% 0.000 in 0.00 W/m2
20:24 82.0 °F 71.0 °F 29.8 in SE 10 mph 14 mph 68% 0.000 in 0.00 W/m2
20:29 82.0 °F 71.0 °F 29.8 in SE 15 mph 15 mph 68% 0.000 in 0.00 W/m2
20:34 82.0 °F 71.0 °F 29.8 in SE 11 mph 19 mph 68% 0.000 in 0.00 W/m2
20:39 82.0 °F 70.0 °F 29.8 in SSE 10 mph 19 mph 68% 0.000 in 0.00 W/m2
20:44 82.0 °F 71.0 °F 29.8 in SSE 16 mph 16 mph 69% 0.000 in 0.00 W/m2
20:49 82.0 °F 71.0 °F 29.8 in SE 11 mph 16 mph 69% 0.000 in 0.00 W/m2
20:54 82.0 °F 71.0 °F 29.8 in SSE 12 mph 15 mph 69% 0.000 in 0.00 W/m2
20:59 82.0 °F 71.0 °F 29.8 in SSE 11 mph 15 mph 69% 0.000 in 0.00 W/m2
21:04 81.0 °F 71.0 °F 29.8 in SSE 9 mph 10 mph 70% 0.000 in 0.00 W/m2
21:09 81.0 °F 71.0 °F 29.8 in SSE 14 mph 14 mph 70% 0.000 in 0.00 W/m2
21:14 81.0 °F 70.0 °F 29.8 in SSE 11 mph 14 mph 70% 0.000 in 0.00 W/m2
21:19 81.0 °F 70.0 °F 29.8 in SSE 14 mph 15 mph 70% 0.000 in 0.00 W/m2
21:24 81.0 °F 71.0 °F 29.8 in SSE 14 mph 15 mph 71% 0.000 in 0.00 W/m2
21:29 81.0 °F 71.0 °F 29.8 in SSE 11 mph 14 mph 71% 0.000 in 0.00 W/m2
21:34 81.0 °F 70.0 °F 29.8 in SSE 9 mph 9 mph 71% 0.000 in 0.00 W/m2
21:39 80.0 °F 70.0 °F 29.8 in SE 9 mph 13 mph 71% 0.000 in 0.00 W/m2
21:44 80.0 °F 70.0 °F 29.8 in SSE 10 mph 11 mph 72% 0.000 in 0.00 W/m2
21:49 80.0 °F 70.0 °F 29.8 in SSE 16 mph 16 mph 72% 0.000 in 0.00 W/m2
21:54 80.0 °F 70.0 °F 29.8 in SSE 16 mph 16 mph 72% 0.000 in 0.00 W/m2
21:59 80.0 °F 71.0 °F 29.8 in SSE 11 mph 17 mph 73% 0.000 in 0.00 W/m2
22:04 80.0 °F 71.0 °F 29.8 in SSE 9 mph 9 mph 73% 0.000 in 0.00 W/m2
22:09 80.0 °F 71.0 °F 29.8 in SSE 8 mph 12 mph 73% 0.000 in 0.00 W/m2
22:14 80.0 °F 71.0 °F 29.8 in SSE 11 mph 11 mph 74% 0.000 in 0.00 W/m2
22:19 80.0 °F 71.0 °F 29.8 in SSE 10 mph 10 mph 74% 0.000 in 0.00 W/m2
22:24 80.0 °F 71.0 °F 29.8 in SSE 9 mph 11 mph 74% 0.000 in 0.00 W/m2
22:29 80.0 °F 71.0 °F 29.8 in SSE 14 mph 15 mph 74% 0.000 in 0.00 W/m2
22:34 80.0 °F 71.0 °F 29.8 in SSE 9 mph 15 mph 75% 0.000 in 0.00 W/m2
22:39 80.0 °F 71.0 °F 29.8 in SSE 14 mph 14 mph 75% 0.000 in 0.00 W/m2
22:44 80.0 °F 71.0 °F 29.8 in SSE 10 mph 14 mph 75% 0.000 in 0.00 W/m2
22:49 80.0 °F 71.0 °F 29.8 in SSE 10 mph 11 mph 75% 0.000 in 0.00 W/m2
22:54 80.0 °F 71.0 °F 29.8 in SSE 12 mph 12 mph 75% 0.000 in 0.00 W/m2
22:59 80.0 °F 71.0 °F 29.8 in SSE 9 mph 11 mph 76% 0.000 in 0.00 W/m2
23:04 79.0 °F 71.0 °F 29.8 in SSE 12 mph 12 mph 76% 0.000 in 0.00 W/m2
23:09 79.0 °F 71.0 °F 29.8 in SSE 8 mph 10 mph 76% 0.000 in 0.00 W/m2
23:14 79.0 °F 71.0 °F 29.8 in SSE 10 mph 10 mph 76% 0.000 in 0.00 W/m2
23:19 79.0 °F 71.0 °F 29.8 in SSE 7 mph 7 mph 76% 0.000 in 0.00 W/m2
23:24 79.0 °F 71.0 °F 29.8 in SSE 8 mph 8 mph 76% 0.000 in 0.00 W/m2
23:29 79.0 °F 71.0 °F 29.8 in SSE 10 mph 10 mph 76% 0.000 in 0.00 W/m2
23:34 79.0 °F 71.0 °F 29.8 in SSE 10 mph 13 mph 77% 0.000 in 0.00 W/m2
23:39 79.0 °F 71.0 °F 29.8 in SSE 9 mph 13 mph 77% 0.000 in 0.00 W/m2
23:44 79.0 °F 71.0 °F 29.8 in SSE 8 mph 10 mph 77% 0.000 in 0.00 W/m2
23:49 79.0 °F 71.0 °F 29.8 in SSE 11 mph 11 mph 77% 0.000 in 0.00 W/m2
23:54 79.0 °F 71.0 °F 29.8 in SSE 8 mph 10 mph 77% 0.000 in 0.00 W/m2
23:59 79.0 °F 71.0 °F 29.8 in SSE 9 mph 9 mph 77% 0.000 in 0.00 W/m2
Villages of Bridgestone, Spring, TX USA
Compliments of Weather Underground - 4 mb